Time;durP1;ratioP1;P1;durP2;ratioP2;P2;SDS_P1;SDS_P2;PMS_P1;PMS_P2;Temp;Humidity;BMP_temperature;BMP_pressure;BME280_temperature;BME280_humidity;BME280_pressure;Samples;Min_cycle;Max_cycle;Signal;HPM_P1;HPM_P2
2023/09/19 00:01:08;;;;;;;;;;;;;;;;;;5046027;28;19933;-60
2023/09/19 00:03:35;;;;;;;;;;;;;;;;;;5043746;28;19924;-60
2023/09/19 00:06:01;;;;;;;;;;;;;;;;;;5054997;28;19925;-60
2023/09/19 00:08:27;;;;;;;;;;;;;;;;;;5067072;28;19928;-60
2023/09/19 00:10:54;;;;;;;;;;;;;;;;;;5062059;28;19925;-60
2023/09/19 00:13:20;;;;;;;;;;;;;;;;;;5058799;28;20318;-60
2023/09/19 00:15:48;;;;;;;;;;;;;;;;;;5059405;28;19925;-60
2023/09/19 00:18:15;;;;;;;;;;;;;;;;;;5059259;28;19925;-60
2023/09/19 00:20:41;;;;;;;;;;;;;;;;;;5038096;28;19928;-60
2023/09/19 00:23:11;;;;;;;;;;;;;;;;;;5039463;28;19935;-60
2023/09/19 00:25:37;;;;;;;;;;;;;;;;;;5055991;28;19933;-60
2023/09/19 00:28:04;;;;;;;;;;;;;;;;;;5058864;28;19929;-60
2023/09/19 00:30:30;;;;;;;;;;;;;;;;;;5029924;28;19931;-60
2023/09/19 00:32:56;;;;;;;;;;;;;;;;;;5063208;28;19983;-60
2023/09/19 00:35:25;;;;;;;;;;;;;;;;;;5051521;28;19986;-60
2023/09/19 00:37:51;;;;;;;;;;;;;;;;;;5049910;28;19972;-60
2023/09/19 00:40:17;;;;;;;;;;;;;;;;;;5051936;28;20653;-60
2023/09/19 00:42:43;;;;;;;;;;;;;;;;;;5059602;28;20685;-62
2023/09/19 00:45:11;;;;;;;;;;;;;;;;;;5062502;28;19931;-61
2023/09/19 00:47:37;;;;;;;;;;;;;;;;;;5051204;28;19925;-60
2023/09/19 00:50:03;;;;;;;;;;;;;;;;;;5061643;28;19928;-61
2023/09/19 00:52:29;;;;;;;;;;;;;;;;;;5042078;28;20400;-60
2023/09/19 00:54:54;;;;;;;;;;;;;;;;;;5052109;28;19943;-60
2023/09/19 00:57:22;;;;;;;;;;;;;;;;;;5062840;28;19931;-60
2023/09/19 00:59:49;;;;;;;;;;;;;;;;;;5048419;28;19925;-60
2023/09/19 01:02:14;;;;;;;;;;;;;;;;;;5044679;28;19978;-61
2023/09/19 01:04:41;;;;;;;;;;;;;;;;;;5058463;28;19943;-60
2023/09/19 01:07:08;;;;;;;;;;;;;;;;;;5061878;28;19935;-60
2023/09/19 01:09:34;;;;;;;;;;;;;;;;;;5066120;28;20394;-60
2023/09/19 01:12:00;;;;;;;;;;;;;;;;;;5059019;28;19940;-59
2023/09/19 01:14:27;;;;;;;;;;;;;;;;;;5059658;28;19944;-59
2023/09/19 01:16:53;;;;;;;;;;;;;;;;;;5059373;28;19960;-60
2023/09/19 01:19:19;;;;;;;;;;;;;;;;;;5059172;28;19975;-60
2023/09/19 01:21:45;;;;;;;;;;;;;;;;;;5064921;28;19982;-60
2023/09/19 01:24:11;;;;;;;;;;;;;;;;;;5061515;28;19928;-60
2023/09/19 01:26:37;;;;;;;;;;;;;;;;;;5056755;28;19960;-60
2023/09/19 01:29:04;;;;;;;;;;;;;;;;;;5056018;28;19929;-60
2023/09/19 01:31:30;;;;;;;;;;;;;;;;;;5053918;28;19925;-60
2023/09/19 01:34:04;;;;;;;;;;;;;;;;;;5051833;28;19978;-60
2023/09/19 01:36:30;;;;;;;;;;;;;;;;;;5055521;28;20461;-60
2023/09/19 01:38:56;;;;;;;;;;;;;;;;;;5066466;28;19971;-60
2023/09/19 01:41:22;;;;;;;;;;;;;;;;;;5053727;28;19959;-60
2023/09/19 01:43:50;;;;;;;;;;;;;;;;;;5055811;28;19925;-60
2023/09/19 01:46:16;;;;;;;;;;;;;;;;;;5060116;28;19925;-60
2023/09/19 01:48:42;;;;;;;;;;;;;;;;;;5056806;28;20332;-60
2023/09/19 01:51:10;;;;;;;;;;;;;;;;;;5062517;28;19940;-60
2023/09/19 01:53:35;;;;;;;;;;;;;;;;;;5058363;28;19932;-60
2023/09/19 01:56:02;;;;;;;;;;;;;;;;;;5051090;28;19921;-60
2023/09/19 01:58:28;;;;;;;;;;;;;;;;;;5042430;28;20401;-60
2023/09/19 02:00:54;;;;;;;;;;;;;;;;;;5040564;28;19924;-60
2023/09/19 02:03:20;;;;;;;;;;;;;;;;;;5053625;28;19928;-60
2023/09/19 02:05:46;;;;;;;;;;;;;;;;;;5065223;28;19928;-60
2023/09/19 02:08:11;;;;;;;;;;;;;;;;;;5070211;28;20296;-60
2023/09/19 02:10:38;;;;;;;;;;;;;;;;;;5065913;28;19932;-60
2023/09/19 02:13:04;;;;;;;;;;;;;;;;;;5066642;28;19928;-61
2023/09/19 02:15:34;;;;;;;;;;;;;;;;;;5042901;28;19925;-60
2023/09/19 02:18:00;;;;;;;;;;;;;;;;;;5062166;28;19925;-59
2023/09/19 02:20:26;;;;;;;;;;;;;;;;;;5061155;28;20301;-60
2023/09/19 02:22:52;;;;;;;;;;;;;;;;;;5065718;28;19925;-60
2023/09/19 02:25:19;;;;;;;;;;;;;;;;;;5041526;28;19932;-60
2023/09/19 02:27:45;;;;;;;;;;;;;;;;;;5057556;28;19924;-61
2023/09/19 02:30:11;;;;;;;;;;;;;;;;;;5053067;28;19970;-60
2023/09/19 02:32:38;;;;;;;;;;;;;;;;;;5062993;28;20377;-60
2023/09/19 02:35:04;;;;;;;;;;;;;;;;;;5063909;28;19925;-60
2023/09/19 02:37:30;;;;;;;;;;;;;;;;;;5057490;28;19920;-61
2023/09/19 02:39:56;;;;;;;;;;;;;;;;;;5053293;28;19925;-60
2023/09/19 02:42:22;;;;;;;;;;;;;;;;;;5041536;28;19999;-60
2023/09/19 02:44:48;;;;;;;;;;;;;;;;;;5061391;28;20022;-61
2023/09/19 02:47:16;;;;;;;;;;;;;;;;;;5067218;28;19924;-61
2023/09/19 02:49:42;;;;;;;;;;;;;;;;;;5050381;28;20383;-60
2023/09/19 02:52:08;;;;;;;;;;;;;;;;;;5064768;28;19924;-60
2023/09/19 02:54:34;;;;;;;;;;;;;;;;;;5053865;28;19924;-60
2023/09/19 02:57:00;;;;;;;;;;;;;;;;;;5047726;28;20298;-60
2023/09/19 02:59:26;;;;;;;;;;;;;;;;;;5059270;28;19932;-60
2023/09/19 03:01:54;;;;;;;;;;;;;;;;;;5058490;28;19927;-60
2023/09/19 03:04:20;;;;;;;;;;;;;;;;;;5070358;28;20289;-60
2023/09/19 03:06:46;;;;;;;;;;;;;;;;;;5046046;28;19935;-60
2023/09/19 03:09:12;;;;;;;;;;;;;;;;;;5063382;28;19936;-60
2023/09/19 03:11:39;;;;;;;;;;;;;;;;;;5058828;28;19932;-60
2023/09/19 03:14:05;;;;;;;;;;;;;;;;;;5064509;28;19925;-59
2023/09/19 03:16:31;;;;;;;;;;;;;;;;;;5041770;28;19925;-60
2023/09/19 03:18:59;;;;;;;;;;;;;;;;;;5058965;28;19932;-59
2023/09/19 03:21:25;;;;;;;;;;;;;;;;;;5069152;28;20015;-60
2023/09/19 03:23:51;;;;;;;;;;;;;;;;;;5062706;28;20019;-60
2023/09/19 03:26:17;;;;;;;;;;;;;;;;;;5063895;28;20404;-60
2023/09/19 03:28:43;;;;;;;;;;;;;;;;;;5057399;28;19924;-60
2023/09/19 03:31:09;;;;;;;;;;;;;;;;;;5060292;28;20017;-60
2023/09/19 03:33:35;;;;;;;;;;;;;;;;;;5058575;28;19924;-60
2023/09/19 03:36:04;;;;;;;;;;;;;;;;;;5056890;28;19928;-60
2023/09/19 03:38:30;;;;;;;;;;;;;;;;;;5046101;28;19958;-60
2023/09/19 03:40:56;;;;;;;;;;;;;;;;;;5063131;28;19964;-60
2023/09/19 03:43:22;;;;;;;;;;;;;;;;;;5047711;28;19974;-60
2023/09/19 03:45:48;;;;;;;;;;;;;;;;;;5051478;28;20016;-60
2023/09/19 03:48:14;;;;;;;;;;;;;;;;;;5045660;28;19931;-60
2023/09/19 03:50:40;;;;;;;;;;;;;;;;;;5046290;28;20015;-60
2023/09/19 03:53:09;;;;;;;;;;;;;;;;;;5062576;28;19932;-60
2023/09/19 03:55:35;;;;;;;;;;;;;;;;;;5048440;28;19924;-60
2023/09/19 03:58:01;;;;;;;;;;;;;;;;;;5062682;28;20309;-59
2023/09/19 04:00:28;;;;;;;;;;;;;;;;;;5062892;28;19935;-60
2023/09/19 04:02:56;;;;;;;;;;;;;;;;;;5051186;28;19930;-60
2023/09/19 04:05:22;;;;;;;;;;;;;;;;;;5055176;28;19925;-61
2023/09/19 04:07:48;;;;;;;;;;;;;;;;;;5059220;28;19959;-61
2023/09/19 04:10:14;;;;;;;;;;;;;;;;;;5063198;28;19924;-61
2023/09/19 04:12:40;;;;;;;;;;;;;;;;;;5059787;28;19928;-60
2023/09/19 04:15:06;;;;;;;;;;;;;;;;;;5060400;28;19932;-61
2023/09/19 04:17:35;;;;;;;;;;;;;;;;;;5059593;28;20289;-61
2023/09/19 04:20:01;;;;;;;;;;;;;;;;;;5057802;28;19928;-60
2023/09/19 04:22:27;;;;;;;;;;;;;;;;;;5060363;28;19936;-60
2023/09/19 04:24:53;;;;;;;;;;;;;;;;;;5052599;28;20030;-61
2023/09/19 04:27:18;;;;;;;;;;;;;;;;;;5059461;28;19932;-60
2023/09/19 04:29:44;;;;;;;;;;;;;;;;;;5057381;28;19925;-60
2023/09/19 04:32:11;;;;;;;;;;;;;;;;;;5054145;28;19932;-59
2023/09/19 04:34:40;;;;;;;;;;;;;;;;;;5053178;28;20382;-60
2023/09/19 04:37:06;;;;;;;;;;;;;;;;;;5059192;28;19960;-60
2023/09/19 04:39:33;;;;;;;;;;;;;;;;;;5059849;28;20091;-60
2023/09/19 04:41:59;;;;;;;;;;;;;;;;;;5067564;28;19972;-60
2023/09/19 04:44:25;;;;;;;;;;;;;;;;;;5067882;28;19989;-60
2023/09/19 04:46:51;;;;;;;;;;;;;;;;;;5054446;28;19932;-60
2023/09/19 04:49:18;;;;;;;;;;;;;;;;;;5058695;28;19940;-60
2023/09/19 04:51:46;;;;;;;;;;;;;;;;;;5046928;28;20402;-60
2023/09/19 04:54:12;;;;;;;;;;;;;;;;;;5056231;28;19929;-61
2023/09/19 04:56:40;;;;;;;;;;;;;;;;;;5068329;28;20784;-61
2023/09/19 04:59:06;;;;;;;;;;;;;;;;;;5052033;28;19925;-60
2023/09/19 05:01:32;;;;;;;;;;;;;;;;;;5057001;28;19983;-61
2023/09/19 05:03:58;;;;;;;;;;;;;;;;;;5049655;28;19974;-61
2023/09/19 05:06:26;;;;;;;;;;;;;;;;;;5051934;28;19932;-61
2023/09/19 05:08:52;;;;;;;;;;;;;;;;;;5047681;28;20282;-60
2023/09/19 05:11:19;;;;;;;;;;;;;;;;;;5058280;28;19925;-61
2023/09/19 05:13:45;;;;;;;;;;;;;;;;;;5051966;28;20365;-61
2023/09/19 05:16:11;;;;;;;;;;;;;;;;;;5053070;28;19931;-60
2023/09/19 05:18:37;;;;;;;;;;;;;;;;;;5040793;28;20401;-61
2023/09/19 05:21:03;;;;;;;;;;;;;;;;;;5053978;28;20023;-61
2023/09/19 05:23:29;;;;;;;;;;;;;;;;;;5053617;28;20061;-61
2023/09/19 05:25:56;;;;;;;;;;;;;;;;;;5043986;28;20201;-61
2023/09/19 05:28:23;;;;;;;;;;;;;;;;;;5055081;28;20011;-61
2023/09/19 05:30:49;;;;;;;;;;;;;;;;;;5067589;28;19924;-61
2023/09/19 05:33:15;;;;;;;;;;;;;;;;;;5062505;28;20452;-62
2023/09/19 05:35:41;;;;;;;;;;;;;;;;;;5059077;28;19924;-63
2023/09/19 05:38:12;;;;;;;;;;;;;;;;;;5059075;28;20450;-60
2023/09/19 05:40:40;;;;;;;;;;;;;;;;;;5058421;28;19924;-60
2023/09/19 05:43:06;;;;;;;;;;;;;;;;;;5064491;28;19931;-60
2023/09/19 05:45:32;;;;;;;;;;;;;;;;;;5043792;28;19924;-61
2023/09/19 05:48:05;;;;;;;;;;;;;;;;;;5062899;28;19936;-60
2023/09/19 05:50:31;;;;;;;;;;;;;;;;;;5058622;28;19970;-61
2023/09/19 05:52:58;;;;;;;;;;;;;;;;;;5059964;28;19928;-61
2023/09/19 05:55:28;;;;;;;;;;;;;;;;;;5047590;28;20614;-61
2023/09/19 05:57:54;;;;;;;;;;;;;;;;;;5039283;28;19964;-61
2023/09/19 06:00:22;;;;;;;;;;;;;;;;;;5049969;28;19972;-62
2023/09/19 06:02:49;;;;;;;;;;;;;;;;;;5043760;28;20350;-62
2023/09/19 06:05:15;;;;;;;;;;;;;;;;;;5043551;28;19931;-61
2023/09/19 06:07:41;;;;;;;;;;;;;;;;;;5038098;28;19924;-62
2023/09/19 06:10:08;;;;;;;;;;;;;;;;;;5050360;28;19983;-61
2023/09/19 06:12:35;;;;;;;;;;;;;;;;;;5059456;28;19924;-61
2023/09/19 06:15:01;;;;;;;;;;;;;;;;;;5054951;28;19924;-61
2023/09/19 06:17:27;;;;;;;;;;;;;;;;;;5056910;28;20568;-60
2023/09/19 06:19:53;;;;;;;;;;;;;;;;;;5049517;28;19924;-61
2023/09/19 06:22:19;;;;;;;;;;;;;;;;;;5057808;28;20019;-60
2023/09/19 06:24:46;;;;;;;;;;;;;;;;;;5061246;28;20008;-60
2023/09/19 06:27:13;;;;;;;;;;;;;;;;;;5048219;28;20390;-60
2023/09/19 06:29:39;;;;;;;;;;;;;;;;;;5057893;28;19925;-60
2023/09/19 06:32:05;;;;;;;;;;;;;;;;;;5057046;28;19925;-60
2023/09/19 06:34:31;;;;;;;;;;;;;;;;;;5049462;28;19956;-60
2023/09/19 06:36:58;;;;;;;;;;;;;;;;;;5062383;28;19925;-59
2023/09/19 06:39:25;;;;;;;;;;;;;;;;;;5063734;28;19924;-61
2023/09/19 06:41:53;;;;;;;;;;;;;;;;;;5065408;28;19924;-61
2023/09/19 06:44:21;;;;;;;;;;;;;;;;;;5072290;28;19931;-61
2023/09/19 06:46:51;;;;;;;;;;;;;;;;;;5070647;28;19973;-61
2023/09/19 06:49:17;;;;;;;;;;;;;;;;;;5054190;28;19928;-60
2023/09/19 06:51:43;;;;;;;;;;;;;;;;;;5036769;28;19978;-60
2023/09/19 06:54:09;;;;;;;;;;;;;;;;;;5053358;28;19931;-60
2023/09/19 06:56:35;;;;;;;;;;;;;;;;;;5053096;28;19924;-60
2023/09/19 06:59:02;;;;;;;;;;;;;;;;;;5049390;28;20386;-60
2023/09/19 07:01:28;;;;;;;;;;;;;;;;;;5050245;28;19924;-60
2023/09/19 07:03:54;;;;;;;;;;;;;;;;;;5054537;28;19932;-60
2023/09/19 07:06:20;;;;;;;;;;;;;;;;;;5069218;28;19931;-61
2023/09/19 07:08:46;;;;;;;;;;;;;;;;;;5069723;28;19928;-60
2023/09/19 07:11:12;;;;;;;;;;;;;;;;;;5047236;28;19979;-60
2023/09/19 07:13:39;;;;;;;;;;;;;;;;;;5057786;28;19928;-61
2023/09/19 07:16:04;;;;;;;;;;;;;;;;;;5048114;28;19932;-60
2023/09/19 07:18:31;;;;;;;;;;;;;;;;;;5052102;28;19928;-60
2023/09/19 07:21:01;;;;;;;;;;;;;;;;;;5059496;28;20011;-60
2023/09/19 07:23:26;;;;;;;;;;;;;;;;;;5061605;28;19934;-60
2023/09/19 07:25:52;;;;;;;;;;;;;;;;;;5044226;28;19928;-61
2023/09/19 07:28:19;;;;;;;;;;;;;;;;;;5057244;28;20422;-60
2023/09/19 07:30:45;;;;;;;;;;;;;;;;;;5063028;28;20559;-60
2023/09/19 07:33:14;;;;;;;;;;;;;;;;;;5061008;28;20019;-60
2023/09/19 07:35:40;;;;;;;;;;;;;;;;;;5036099;28;20260;-63
2023/09/19 07:38:06;;;;;;;;;;;;;;;;;;5059152;28;19968;-64
2023/09/19 07:40:33;;;;;;;;;;;;;;;;;;5062279;28;19931;-61
2023/09/19 07:43:02;;;;;;;;;;;;;;;;;;5064636;28;19928;-63
2023/09/19 07:45:29;;;;;;;;;;;;;;;;;;5065754;28;19928;-63
2023/09/19 07:47:55;;;;;;;;;;;;;;;;;;5057185;28;19931;-63
2023/09/19 07:50:21;;;;;;;;;;;;;;;;;;5063517;28;19924;-63
2023/09/19 07:52:47;;;;;;;;;;;;;;;;;;5052628;28;19963;-60
2023/09/19 07:55:16;;;;;;;;;;;;;;;;;;5060234;28;19960;-61
2023/09/19 07:57:42;;;;;;;;;;;;;;;;;;5063420;28;19925;-61
2023/09/19 08:00:09;;;;;;;;;;;;;;;;;;5066082;28;19928;-61
2023/09/19 08:02:37;;;;;;;;;;;;;;;;;;5056293;28;20361;-61
2023/09/19 08:05:06;;;;;;;;;;;;;;;;;;5059630;28;19933;-61
2023/09/19 08:07:31;;;;;;;;;;;;;;;;;;5049117;28;20449;-62
2023/09/19 08:09:58;;;;;;;;;;;;;;;;;;5051143;28;19939;-61
2023/09/19 08:12:24;;;;;;;;;;;;;;;;;;5050324;28;19935;-62
2023/09/19 08:14:50;;;;;;;;;;;;;;;;;;5058391;28;19928;-62
2023/09/19 08:17:16;;;;;;;;;;;;;;;;;;5059248;28;20301;-61
2023/09/19 08:19:44;;;;;;;;;;;;;;;;;;5052723;28;19974;-61
2023/09/19 08:22:10;;;;;;;;;;;;;;;;;;5058981;28;19967;-61
2023/09/19 08:24:36;;;;;;;;;;;;;;;;;;5054225;28;20011;-61
2023/09/19 08:27:04;;;;;;;;;;;;;;;;;;5060751;28;20086;-61
2023/09/19 08:29:30;;;;;;;;;;;;;;;;;;5058306;28;19929;-61
2023/09/19 08:31:56;;;;;;;;;;;;;;;;;;5057413;28;19931;-60
2023/09/19 08:34:22;;;;;;;;;;;;;;;;;;5053929;28;20481;-61
2023/09/19 08:36:48;;;;;;;;;;;;;;;;;;5052238;28;19932;-60
2023/09/19 08:39:14;;;;;;;;;;;;;;;;;;5052046;28;20073;-60
2023/09/19 08:41:40;;;;;;;;;;;;;;;;;;5054683;28;20023;-60
2023/09/19 08:44:05;;;;;;;;;;;;;;;;;;5053110;28;19928;-61
2023/09/19 08:46:31;;;;;;;;;;;;;;;;;;5046773;28;19936;-61
2023/09/19 08:48:57;;;;;;;;;;;;;;;;;;5059149;28;19925;-61
2023/09/19 08:51:23;;;;;;;;;;;;;;;;;;5044925;28;19974;-61
2023/09/19 08:53:49;;;;;;;;;;;;;;;;;;5056720;28;19932;-61
2023/09/19 08:56:15;;;;;;;;;;;;;;;;;;5061393;28;19993;-61
2023/09/19 08:58:41;;;;;;;;;;;;;;;;;;5057252;28;19936;-61
2023/09/19 09:01:08;;;;;;;;;;;;;;;;;;5055393;28;19929;-61
2023/09/19 09:03:34;;;;;;;;;;;;;;;;;;5051760;28;19980;-61
2023/09/19 09:06:01;;;;;;;;;;;;;;;;;;5052620;28;19985;-62
2023/09/19 09:08:27;;;;;;;;;;;;;;;;;;5058979;28;19920;-61
2023/09/19 09:10:52;;;;;;;;;;;;;;;;;;5053894;28;19932;-61
2023/09/19 09:13:18;;;;;;;;;;;;;;;;;;5060442;28;19929;-61
2023/09/19 09:15:44;;;;;;;;;;;;;;;;;;5029730;28;19925;-60
2023/09/19 09:18:10;;;;;;;;;;;;;;;;;;5048799;28;20341;-61
2023/09/19 09:20:36;;;;;;;;;;;;;;;;;;5055475;28;19929;-61
2023/09/19 09:23:04;;;;;;;;;;;;;;;;;;5054832;28;19976;-62
2023/09/19 09:25:30;;;;;;;;;;;;;;;;;;5054586;28;20393;-62
2023/09/19 09:27:56;;;;;;;;;;;;;;;;;;5042387;28;19983;-62
2023/09/19 09:30:22;;;;;;;;;;;;;;;;;;5060564;28;20023;-63
2023/09/19 09:32:48;;;;;;;;;;;;;;;;;;5059917;28;19934;-62
2023/09/19 09:35:15;;;;;;;;;;;;;;;;;;5068093;28;20387;-62
2023/09/19 09:37:41;;;;;;;;;;;;;;;;;;5068408;28;20453;-62
2023/09/19 09:42:46;;;;;;;;;;;;;;;;;;5060240;28;19928;-61
2023/09/19 09:45:12;;;;;;;;;;;;;;;;;;5062746;28;19928;-61
2023/09/19 09:47:38;;;;;;;;;;;;;;;;;;5055650;28;19948;-61
2023/09/19 09:50:16;;;;;;;;;;;;;;;;;;5063271;28;19928;-60
2023/09/19 09:52:43;;;;;;;;;;;;;;;;;;5052347;28;20006;-60
2023/09/19 09:55:10;;;;;;;;;;;;;;;;;;5070153;28;19924;-60
2023/09/19 09:57:35;;;;;;;;;;;;;;;;;;5064903;28;19934;-60
2023/09/19 10:02:36;;;;;;;;;;;;;;;;;;5070211;28;19935;-61
2023/09/19 10:05:09;;;;;;;;;;;;;;;;;;5050256;28;19932;-61
2023/09/19 10:07:38;;;;;;;;;;;;;;;;;;5054166;28;19932;-65
2023/09/19 10:10:15;;;;;;;;;;;;;;;;;;5053497;28;19981;-61
2023/09/19 10:12:41;;;;;;;;;;;;;;;;;;5052980;28;19924;-61
2023/09/19 10:15:09;;;;;;;;;;;;;;;;;;5075774;28;19939;-60
2023/09/19 10:17:36;;;;;;;;;;;;;;;;;;5061453;28;19968;-61
2023/09/19 10:20:19;;;;;;;;;;;;;;;;;;5057721;28;20025;-61
2023/09/19 10:22:45;;;;;;;;;;;;;;;;;;5055085;28;19952;-60
2023/09/19 10:25:12;;;;;;;;;;;;;;;;;;5038910;28;19928;-61
2023/09/19 10:27:38;;;;;;;;;;;;;;;;;;5061978;28;20551;-61
2023/09/19 10:30:04;;;;;;;;;;;;;;;;;;5070143;28;20328;-61
2023/09/19 10:32:33;;;;;;;;;;;;;;;;;;5071065;28;19928;-60
2023/09/19 10:35:00;;;;;;;;;;;;;;;;;;5077144;28;19932;-60
2023/09/19 10:37:26;;;;;;;;;;;;;;;;;;5061727;28;19928;-60
2023/09/19 10:39:52;;;;;;;;;;;;;;;;;;5063190;28;19925;-61
2023/09/19 10:42:18;;;;;;;;;;;;;;;;;;5064101;28;19928;-60
2023/09/19 10:44:44;;;;;;;;;;;;;;;;;;5061886;28;19928;-60
2023/09/19 10:47:10;;;;;;;;;;;;;;;;;;5055355;28;20389;-60
2023/09/19 10:49:36;;;;;;;;;;;;;;;;;;5060441;28;19940;-60
2023/09/19 10:52:02;;;;;;;;;;;;;;;;;;5052532;28;19933;-61
2023/09/19 10:54:28;;;;;;;;;;;;;;;;;;5070772;28;19933;-61
2023/09/19 10:56:54;;;;;;;;;;;;;;;;;;5050238;28;19934;-61
2023/09/19 10:59:20;;;;;;;;;;;;;;;;;;5056758;28;19933;-61
2023/09/19 11:01:47;;;;;;;;;;;;;;;;;;5068365;28;20078;-61
2023/09/19 11:04:13;;;;;;;;;;;;;;;;;;5038350;28;20089;-61
2023/09/19 11:06:41;;;;;;;;;;;;;;;;;;5047130;28;19932;-61
2023/09/19 11:11:35;;;;;;;;;;;;;;;;;;5048718;28;19974;-61
2023/09/19 11:14:01;;;;;;;;;;;;;;;;;;5061603;28;20029;-61
2023/09/19 11:16:28;;;;;;;;;;;;;;;;;;5059496;28;19924;-61
2023/09/19 11:18:55;;;;;;;;;;;;;;;;;;5057978;28;19929;-61
2023/09/19 11:21:21;;;;;;;;;;;;;;;;;;5054276;28;19924;-61
2023/09/19 11:23:47;;;;;;;;;;;;;;;;;;5063718;28;19951;-60
2023/09/19 11:26:13;;;;;;;;;;;;;;;;;;5059321;28;20375;-60
2023/09/19 11:28:39;;;;;;;;;;;;;;;;;;5061059;28;19928;-60
2023/09/19 11:31:05;;;;;;;;;;;;;;;;;;5052008;28;19929;-60
2023/09/19 11:33:33;;;;;;;;;;;;;;;;;;5051753;28;19981;-60
2023/09/19 11:36:00;;;;;;;;;;;;;;;;;;5058576;28;19932;-60
2023/09/19 11:38:26;;;;;;;;;;;;;;;;;;5055832;28;20298;-61
2023/09/19 11:40:54;;;;;;;;;;;;;;;;;;5056494;28;19929;-60
2023/09/19 11:43:20;;;;;;;;;;;;;;;;;;5056343;28;19932;-60
2023/09/19 11:45:46;;;;;;;;;;;;;;;;;;5069333;28;19935;-60
2023/09/19 11:48:13;;;;;;;;;;;;;;;;;;5055243;28;20290;-59
2023/09/19 11:50:43;;;;;;;;;;;;;;;;;;5055629;28;19933;-60
2023/09/19 11:53:11;;;;;;;;;;;;;;;;;;5059359;28;19928;-60
2023/09/19 11:55:38;;;;;;;;;;;;;;;;;;5067190;28;19987;-60
2023/09/19 11:58:04;;;;;;;;;;;;;;;;;;5060504;28;19924;-60
2023/09/19 12:00:30;;;;;;;;;;;;;;;;;;5058626;28;20343;-60
2023/09/19 12:02:57;;;;;;;;;;;;;;;;;;5058242;28;20105;-60
2023/09/19 12:05:23;;;;;;;;;;;;;;;;;;5063807;28;20121;-60
2023/09/19 12:07:49;;;;;;;;;;;;;;;;;;5057955;28;20310;-60
2023/09/19 12:10:17;;;;;;;;;;;;;;;;;;5063672;28;19928;-60
2023/09/19 12:12:43;;;;;;;;;;;;;;;;;;5054348;28;19929;-59
2023/09/19 12:15:10;;;;;;;;;;;;;;;;;;5060621;28;19939;-60
2023/09/19 12:17:36;;;;;;;;;;;;;;;;;;5042863;28;19928;-63
2023/09/19 12:20:15;;;;;;;;;;;;;;;;;;5060476;28;20701;-60
2023/09/19 12:22:43;;;;;;;;;;;;;;;;;;5042108;28;19932;-60
2023/09/19 12:25:11;;;;;;;;;;;;;;;;;;5063614;28;19932;-60
2023/09/19 12:27:37;;;;;;;;;;;;;;;;;;5062018;28;19924;-60
2023/09/19 12:30:05;;;;;;;;;;;;;;;;;;5052916;28;19940;-60
2023/09/19 12:32:34;;;;;;;;;;;;;;;;;;5056108;28;19931;-60
2023/09/19 12:35:03;;;;;;;;;;;;;;;;;;5057320;28;19954;-60
2023/09/19 12:37:30;;;;;;;;;;;;;;;;;;5053427;28;19967;-60
2023/09/19 12:39:56;;;;;;;;;;;;;;;;;;5054195;28;20077;-60
2023/09/19 12:42:22;;;;;;;;;;;;;;;;;;5060778;28;20386;-60
2023/09/19 12:44:48;;;;;;;;;;;;;;;;;;5053731;28;19935;-60
2023/09/19 12:47:15;;;;;;;;;;;;;;;;;;5062346;28;19928;-60
2023/09/19 12:49:41;;;;;;;;;;;;;;;;;;5064424;28;19928;-60
2023/09/19 12:52:10;;;;;;;;;;;;;;;;;;5045259;28;19932;-59
2023/09/19 12:54:35;;;;;;;;;;;;;;;;;;5063584;28;19951;-59
2023/09/19 12:57:01;;;;;;;;;;;;;;;;;;5058577;28;20031;-59
2023/09/19 12:59:30;;;;;;;;;;;;;;;;;;5058135;28;20684;-60
2023/09/19 13:01:56;;;;;;;;;;;;;;;;;;5061218;28;19971;-61
2023/09/19 13:04:30;;;;;;;;;;;;;;;;;;5060412;28;20014;-59
2023/09/19 13:07:00;;;;;;;;;;;;;;;;;;5058167;28;20320;-61
2023/09/19 13:09:34;;;;;;;;;;;;;;;;;;5056295;28;19928;-60
2023/09/19 13:12:02;;;;;;;;;;;;;;;;;;5061055;28;20427;-60
2023/09/19 13:14:31;;;;;;;;;;;;;;;;;;5068975;28;19924;-59
2023/09/19 13:16:57;;;;;;;;;;;;;;;;;;5049215;28;20027;-60
2023/09/19 13:19:22;;;;;;;;;;;;;;;;;;5051415;28;20082;-59
2023/09/19 13:21:51;;;;;;;;;;;;;;;;;;5057026;28;19928;-59
2023/09/19 13:24:16;;;;;;;;;;;;;;;;;;5053489;28;19925;-59
2023/09/19 13:26:42;;;;;;;;;;;;;;;;;;5053315;28;20019;-59
2023/09/19 13:29:08;;;;;;;;;;;;;;;;;;5050923;28;19943;-59
2023/09/19 13:31:34;;;;;;;;;;;;;;;;;;5046858;28;20372;-59
2023/09/19 13:34:00;;;;;;;;;;;;;;;;;;5045267;28;19929;-59
2023/09/19 13:36:26;;;;;;;;;;;;;;;;;;5043920;28;19921;-60
2023/09/19 13:38:53;;;;;;;;;;;;;;;;;;5043970;28;19931;-59
2023/09/19 13:41:19;;;;;;;;;;;;;;;;;;5041280;28;19932;-59
2023/09/19 13:43:48;;;;;;;;;;;;;;;;;;5058160;28;20275;-59
2023/09/19 13:46:16;;;;;;;;;;;;;;;;;;5059988;28;19925;-59
2023/09/19 13:48:42;;;;;;;;;;;;;;;;;;5056615;28;19943;-60
2023/09/19 13:51:08;;;;;;;;;;;;;;;;;;5059178;28;20472;-59
2023/09/19 13:53:34;;;;;;;;;;;;;;;;;;5056559;28;19929;-60
2023/09/19 13:56:00;;;;;;;;;;;;;;;;;;5054869;28;20012;-59
2023/09/19 13:58:27;;;;;;;;;;;;;;;;;;5057941;28;20398;-59
2023/09/19 14:00:55;;;;;;;;;;;;;;;;;;5030341;28;19925;-59
2023/09/19 14:03:21;;;;;;;;;;;;;;;;;;5050559;28;19970;-59
2023/09/19 14:05:47;;;;;;;;;;;;;;;;;;5045066;28;19978;-59
2023/09/19 14:08:13;;;;;;;;;;;;;;;;;;5059452;28;19928;-59
2023/09/19 14:10:39;;;;;;;;;;;;;;;;;;5057509;28;19932;-60
2023/09/19 14:13:05;;;;;;;;;;;;;;;;;;5052495;28;19936;-60
2023/09/19 14:15:32;;;;;;;;;;;;;;;;;;5044662;28;20617;-60
2023/09/19 14:17:58;;;;;;;;;;;;;;;;;;5042412;28;20372;-60
2023/09/19 14:20:26;;;;;;;;;;;;;;;;;;5059541;28;19936;-59
2023/09/19 14:22:52;;;;;;;;;;;;;;;;;;5048447;28;20054;-60
2023/09/19 14:25:18;;;;;;;;;;;;;;;;;;5051916;28;19936;-59
2023/09/19 14:27:44;;;;;;;;;;;;;;;;;;5066209;28;19928;-59
2023/09/19 14:30:09;;;;;;;;;;;;;;;;;;5057983;28;19928;-60
2023/09/19 14:32:35;;;;;;;;;;;;;;;;;;5065003;28;20032;-59
2023/09/19 14:35:01;;;;;;;;;;;;;;;;;;5056466;28;19929;-59
2023/09/19 14:37:28;;;;;;;;;;;;;;;;;;5062893;28;20476;-59
2023/09/19 14:39:54;;;;;;;;;;;;;;;;;;5049025;28;20412;-60
2023/09/19 14:42:20;;;;;;;;;;;;;;;;;;5051128;28;19928;-59
2023/09/19 14:44:48;;;;;;;;;;;;;;;;;;5063744;28;19928;-59
2023/09/19 14:47:14;;;;;;;;;;;;;;;;;;5049493;28;19975;-60
2023/09/19 14:49:40;;;;;;;;;;;;;;;;;;5062243;28;19970;-59
2023/09/19 14:52:06;;;;;;;;;;;;;;;;;;5059929;28;20012;-60
2023/09/19 14:54:32;;;;;;;;;;;;;;;;;;5068274;28;19968;-59
2023/09/19 14:57:04;;;;;;;;;;;;;;;;;;5056688;28;19982;-59
2023/09/19 14:59:29;;;;;;;;;;;;;;;;;;5050033;28;19932;-60
2023/09/19 15:01:55;;;;;;;;;;;;;;;;;;5056946;28;20431;-59
2023/09/19 15:04:21;;;;;;;;;;;;;;;;;;5056053;28;19936;-59
2023/09/19 15:06:48;;;;;;;;;;;;;;;;;;5065961;28;19935;-59
2023/09/19 15:09:15;;;;;;;;;;;;;;;;;;5045815;28;19932;-59
2023/09/19 15:11:40;;;;;;;;;;;;;;;;;;5054362;28;19939;-59
2023/09/19 15:14:06;;;;;;;;;;;;;;;;;;5058543;28;19950;-59
2023/09/19 15:16:32;;;;;;;;;;;;;;;;;;5049844;28;19975;-59
2023/09/19 15:18:58;;;;;;;;;;;;;;;;;;5050848;28;19929;-59
2023/09/19 15:21:24;;;;;;;;;;;;;;;;;;5063072;28;19935;-59
2023/09/19 15:23:50;;;;;;;;;;;;;;;;;;5062669;28;20293;-59
2023/09/19 15:26:20;;;;;;;;;;;;;;;;;;5061690;28;20394;-59
2023/09/19 15:28:46;;;;;;;;;;;;;;;;;;5061199;28;19968;-59
2023/09/19 15:31:12;;;;;;;;;;;;;;;;;;5056318;28;19979;-59
2023/09/19 15:33:38;;;;;;;;;;;;;;;;;;5052632;28;19980;-59
2023/09/19 15:36:04;;;;;;;;;;;;;;;;;;5053578;28;19995;-59
2023/09/19 15:38:31;;;;;;;;;;;;;;;;;;5060197;28;21470;-60
2023/09/19 15:40:57;;;;;;;;;;;;;;;;;;5057338;28;19929;-60
2023/09/19 15:43:23;;;;;;;;;;;;;;;;;;5057341;28;19931;-60
2023/09/19 15:45:49;;;;;;;;;;;;;;;;;;5054372;28;20030;-59
2023/09/19 15:48:16;;;;;;;;;;;;;;;;;;5068296;28;19947;-60
2023/09/19 15:50:42;;;;;;;;;;;;;;;;;;5073109;28;20027;-59
2023/09/19 15:53:12;;;;;;;;;;;;;;;;;;5069140;28;20015;-59
2023/09/19 15:55:40;;;;;;;;;;;;;;;;;;5063789;28;20402;-59
2023/09/19 15:58:09;;;;;;;;;;;;;;;;;;5058185;28;20050;-59
2023/09/19 16:00:36;;;;;;;;;;;;;;;;;;5056817;28;19924;-59
2023/09/19 16:03:02;;;;;;;;;;;;;;;;;;5057971;28;20434;-61
2023/09/19 16:05:28;;;;;;;;;;;;;;;;;;5063560;28;19924;-58
2023/09/19 16:07:54;;;;;;;;;;;;;;;;;;5057717;28;19925;-60
2023/09/19 16:10:21;;;;;;;;;;;;;;;;;;5054000;28;19935;-60
2023/09/19 16:12:47;;;;;;;;;;;;;;;;;;5047967;28;19925;-58
2023/09/19 16:15:15;;;;;;;;;;;;;;;;;;5058438;28;19994;-58
2023/09/19 16:17:41;;;;;;;;;;;;;;;;;;5054044;28;20496;-57
2023/09/19 16:20:08;;;;;;;;;;;;;;;;;;5055712;28;19933;-58
2023/09/19 16:22:34;;;;;;;;;;;;;;;;;;5056932;28;19943;-58
2023/09/19 16:24:59;;;;;;;;;;;;;;;;;;5056143;28;19932;-60
2023/09/19 16:27:25;;;;;;;;;;;;;;;;;;5070015;28;19960;-60
2023/09/19 16:29:51;;;;;;;;;;;;;;;;;;5061478;28;19974;-58
2023/09/19 16:32:18;;;;;;;;;;;;;;;;;;5061749;28;20347;-59
2023/09/19 16:34:44;;;;;;;;;;;;;;;;;;5055513;28;19936;-59
2023/09/19 16:37:10;;;;;;;;;;;;;;;;;;5042951;28;19928;-60
2023/09/19 16:39:36;;;;;;;;;;;;;;;;;;5054733;28;19955;-59
2023/09/19 16:42:02;;;;;;;;;;;;;;;;;;5053590;28;19932;-60
2023/09/19 16:44:29;;;;;;;;;;;;;;;;;;5051864;28;19978;-60
2023/09/19 16:46:56;;;;;;;;;;;;;;;;;;5062855;28;20602;-61
2023/09/19 16:49:21;;;;;;;;;;;;;;;;;;5061627;28;19928;-59